createdAt,value
2022-11-29T00:01:31.965Z,27.27
2022-11-29T00:04:35.206Z,27.13
2022-11-29T00:07:39.613Z,27.63
2022-11-29T00:10:42.764Z,26.40
2022-11-29T00:13:45.825Z,25.50
2022-11-29T00:16:52.279Z,25.27
2022-11-29T00:19:55.331Z,25.50
2022-11-29T00:22:59.761Z,25.23
2022-11-29T00:26:06.448Z,25.03
2022-11-29T00:29:09.202Z,23.67
2022-11-29T00:32:11.935Z,23.07
2022-11-29T00:35:15.274Z,23.80
2022-11-29T00:38:19.761Z,21.90
2022-11-29T00:41:22.920Z,21.77
2022-11-29T00:44:26.017Z,21.10
2022-11-29T00:47:28.988Z,19.97
2022-11-29T00:50:32.063Z,20.37
2022-11-29T00:53:37.384Z,18.77
2022-11-29T00:56:40.385Z,18.77
2022-11-29T00:59:43.431Z,17.87
2022-11-29T01:02:47.499Z,17.90
2022-11-29T01:05:50.939Z,17.93
2022-11-29T01:08:55.319Z,17.57
2022-11-29T01:11:58.385Z,16.73
2022-11-29T01:15:01.413Z,15.50
2022-11-29T01:18:04.527Z,15.70
2022-11-29T01:21:10.010Z,15.10
2022-11-29T01:24:14.218Z,16.27
2022-11-29T01:27:17.288Z,14.20
2022-11-29T01:30:20.669Z,13.23
2022-11-29T01:33:24.343Z,13.77
2022-11-29T01:36:28.803Z,13.50
2022-11-29T01:39:33.187Z,13.50
2022-11-29T01:42:36.275Z,13.80
2022-11-29T01:45:40.537Z,11.87
2022-11-29T01:48:43.577Z,11.97
2022-11-29T01:51:49.866Z,11.23
2022-11-29T01:54:57.445Z,11.37
2022-11-29T01:58:01.548Z,10.23
2022-11-29T02:01:04.682Z,10.40
2022-11-29T02:04:08.376Z,10.40
2022-11-29T02:07:11.606Z,9.80
2022-11-29T02:10:16.844Z,9.40
2022-11-29T02:13:30.025Z,9.37
2022-11-29T02:16:39.111Z,8.87
2022-11-29T02:20:05.750Z,9.53
2022-11-29T02:23:29.411Z,8.03
2022-11-29T02:26:56.337Z,7.90
2022-11-29T02:30:16.583Z,8.10
2022-11-29T02:34:00.564Z,7.80
2022-11-29T02:37:23.630Z,7.17
2022-11-29T02:40:48.403Z,7.70
2022-11-29T02:44:17.432Z,7.10
2022-11-29T02:47:28.669Z,7.13
2022-11-29T02:50:42.711Z,6.93
2022-11-29T02:53:52.575Z,6.63
2022-11-29T02:57:00.269Z,6.00
2022-11-29T03:00:07.887Z,5.40
2022-11-29T03:03:18.804Z,5.70
2022-11-29T03:06:33.798Z,5.60
2022-11-29T03:09:41.258Z,5.67
2022-11-29T03:12:48.639Z,5.53
2022-11-29T03:16:00.324Z,5.40
2022-11-29T03:19:16.491Z,4.97
2022-11-29T03:22:32.946Z,4.70
2022-11-29T03:25:41.500Z,5.00
2022-11-29T03:28:50.922Z,4.60
2022-11-29T03:32:02.102Z,4.03
2022-11-29T03:35:14.385Z,4.13
2022-11-29T03:38:28.160Z,4.17
2022-11-29T03:41:38.160Z,4.10
2022-11-29T03:44:47.924Z,3.90
2022-11-29T03:47:58.864Z,4.00
2022-11-29T03:51:08.642Z,3.70
2022-11-29T03:54:19.023Z,3.73
2022-11-29T03:57:32.042Z,3.90
2022-11-29T04:00:57.767Z,3.50
2022-11-29T04:04:21.230Z,3.50
2022-11-29T04:07:36.851Z,3.40
2022-11-29T04:11:05.498Z,3.17
2022-11-29T04:14:55.875Z,3.13
2022-11-29T04:18:31.008Z,3.10
2022-11-29T04:22:04.664Z,2.60
2022-11-29T04:25:39.618Z,3.33
2022-11-29T04:29:12.724Z,4.30
2022-11-29T04:32:34.989Z,4.60
2022-11-29T04:35:52.485Z,4.47
2022-11-29T04:39:23.788Z,4.57
2022-11-29T04:42:46.104Z,4.20
2022-11-29T04:46:14.071Z,4.13
2022-11-29T04:49:43.801Z,3.53
2022-11-29T04:53:19.015Z,3.40
2022-11-29T04:56:32.413Z,2.83
2022-11-29T04:59:45.238Z,2.70
2022-11-29T05:02:55.950Z,2.70
2022-11-29T05:06:08.167Z,2.53
2022-11-29T05:09:23.391Z,2.13
2022-11-29T05:12:34.400Z,2.20
2022-11-29T05:15:54.093Z,2.40
2022-11-29T05:19:18.247Z,2.03
2022-11-29T05:22:41.600Z,2.03
2022-11-29T05:25:51.636Z,2.33
2022-11-29T05:29:02.955Z,1.97
2022-11-29T05:32:23.985Z,2.17
2022-11-29T05:36:01.911Z,2.10
2022-11-29T05:39:23.384Z,2.07
2022-11-29T05:42:45.969Z,1.90
2022-11-29T05:45:53.247Z,1.83
2022-11-29T05:49:06.448Z,1.83
2022-11-29T05:52:48.953Z,1.90
2022-11-29T05:56:01.799Z,1.70
2022-11-29T05:59:09.503Z,1.63
2022-11-29T06:02:29.608Z,1.93
2022-11-29T06:05:37.909Z,1.50
2022-11-29T06:08:48.928Z,1.67
2022-11-29T06:11:58.784Z,1.70
2022-11-29T06:15:23.488Z,2.00
2022-11-29T06:18:42.808Z,1.87
2022-11-29T06:21:55.982Z,1.83
2022-11-29T06:25:17.262Z,1.80
2022-11-29T06:28:36.910Z,1.90
2022-11-29T06:31:45.241Z,2.30
2022-11-29T06:34:55.703Z,2.30
2022-11-29T06:38:02.210Z,2.33
2022-11-29T06:41:05.847Z,2.60
2022-11-29T06:44:11.524Z,3.50
2022-11-29T06:47:23.278Z,4.00
2022-11-29T06:50:38.852Z,5.73
2022-11-29T06:53:49.681Z,6.63
2022-11-29T06:57:00.865Z,7.43
2022-11-29T07:00:12.080Z,7.90
2022-11-29T07:03:33.144Z,8.13
2022-11-29T07:06:37.060Z,6.77
2022-11-29T07:09:41.011Z,7.20
2022-11-29T07:12:44.965Z,7.67
2022-11-29T07:15:58.176Z,6.60
2022-11-29T07:19:19.998Z,7.13
2022-11-29T07:22:40.837Z,7.00
2022-11-29T07:25:54.460Z,8.13
2022-11-29T07:29:11.066Z,7.67
2022-11-29T07:32:25.171Z,8.00
2022-11-29T07:35:32.982Z,7.67
2022-11-29T07:38:48.388Z,7.17
2022-11-29T07:42:01.805Z,7.53
2022-11-29T07:45:16.404Z,7.20
2022-11-29T07:48:20.805Z,7.30
2022-11-29T07:51:23.938Z,6.90
2022-11-29T07:54:27.206Z,6.67
2022-11-29T07:57:30.025Z,6.40
2022-11-29T08:00:33.096Z,6.60
2022-11-29T08:03:37.815Z,6.23
2022-11-29T08:06:40.893Z,6.70
2022-11-29T08:09:44.320Z,6.93
2022-11-29T08:12:50.347Z,6.30
2022-11-29T08:15:53.401Z,7.20
2022-11-29T08:18:57.801Z,6.80
2022-11-29T08:22:00.760Z,8.17
2022-11-29T08:25:04.230Z,7.40
2022-11-29T08:28:07.525Z,8.20
2022-11-29T08:31:12.503Z,7.47
2022-11-29T08:34:16.979Z,7.10
2022-11-29T08:37:19.987Z,7.00
2022-11-29T08:40:24.248Z,7.07
2022-11-29T08:43:27.455Z,6.83
2022-11-29T08:46:44.296Z,7.00
2022-11-29T08:50:03.816Z,6.23
2022-11-29T08:53:24.246Z,7.27
2022-11-29T08:59:50.338Z,7.20
2022-11-29T09:02:53.291Z,6.70
2022-11-29T09:05:57.836Z,7.10
2022-11-29T09:09:02.055Z,6.50
2022-11-29T09:12:08.645Z,6.53
2022-11-29T09:15:12.704Z,6.87
2022-11-29T09:18:15.758Z,6.50
2022-11-29T09:21:20.395Z,5.97
2022-11-29T09:24:23.472Z,6.53
2022-11-29T09:27:27.035Z,6.20
2022-11-29T09:30:34.131Z,6.20
2022-11-29T09:33:37.575Z,6.50
2022-11-29T09:36:44.065Z,9.20
2022-11-29T09:39:47.320Z,15.07
2022-11-29T09:43:02.030Z,17.63
2022-11-29T09:46:16.281Z,18.70
2022-11-29T09:49:47.985Z,19.93
2022-11-29T09:53:04.685Z,20.60
2022-11-29T09:56:17.260Z,20.90
2022-11-29T09:59:24.904Z,20.50
2022-11-29T10:02:37.138Z,21.67
2022-11-29T10:05:46.661Z,21.50
2022-11-29T10:08:55.324Z,20.10
2022-11-29T10:12:07.091Z,19.70
2022-11-29T10:15:16.965Z,19.73
2022-11-29T10:18:23.942Z,18.90
2022-11-29T10:21:29.695Z,18.60
2022-11-29T10:24:35.770Z,17.67
2022-11-29T10:27:41.684Z,18.13
2022-11-29T10:30:45.764Z,17.30
2022-11-29T10:33:49.823Z,18.03
2022-11-29T10:36:58.756Z,14.90
2022-11-29T10:40:08.108Z,15.07
2022-11-29T10:43:11.344Z,14.10
2022-11-29T10:46:20.416Z,13.93
2022-11-29T10:49:28.262Z,13.60
2022-11-29T10:52:31.332Z,12.57
2022-11-29T10:55:41.913Z,12.40
2022-11-29T10:58:56.147Z,11.50
2022-11-29T11:02:00.554Z,11.23
2022-11-29T11:05:05.073Z,10.33
2022-11-29T11:08:18.945Z,10.80
2022-11-29T11:11:28.288Z,9.20
2022-11-29T11:14:33.112Z,9.80
2022-11-29T11:17:37.696Z,9.37
2022-11-29T11:20:44.409Z,8.60
2022-11-29T11:23:55.557Z,8.47
2022-11-29T11:27:01.618Z,8.03
2022-11-29T11:30:06.683Z,7.60
2022-11-29T11:33:19.263Z,7.27
2022-11-29T11:36:23.744Z,7.07
2022-11-29T11:39:33.630Z,7.40
2022-11-29T11:42:42.838Z,7.37
2022-11-29T11:45:53.609Z,7.00
2022-11-29T11:48:56.379Z,6.90
2022-11-29T11:52:01.420Z,6.03
2022-11-29T11:55:06.242Z,6.20
2022-11-29T11:58:21.176Z,6.23
2022-11-29T12:01:31.047Z,6.10
2022-11-29T12:04:37.982Z,5.80
2022-11-29T12:08:07.421Z,5.87
2022-11-29T12:11:14.127Z,5.80
2022-11-29T12:14:25.306Z,5.70
2022-11-29T12:17:35.333Z,4.90
2022-11-29T12:20:41.863Z,5.00
2022-11-29T12:23:49.198Z,4.73
2022-11-29T12:26:58.239Z,5.20
2022-11-29T12:30:03.163Z,4.30
2022-11-29T12:33:26.243Z,5.47
2022-11-29T12:36:38.722Z,4.43
2022-11-29T12:39:49.651Z,5.03
2022-11-29T12:42:58.556Z,4.00
2022-11-29T12:46:10.437Z,3.97
2022-11-29T12:49:24.318Z,4.20
2022-11-29T12:52:37.119Z,4.03
2022-11-29T12:55:50.684Z,3.93
2022-11-29T12:58:57.790Z,3.63
2022-11-29T13:02:22.672Z,3.87
2022-11-29T13:05:38.456Z,4.10
2022-11-29T13:08:58.565Z,3.70
2022-11-29T13:12:09.508Z,3.70
2022-11-29T13:15:16.764Z,3.90
2022-11-29T13:18:27.830Z,3.60
2022-11-29T13:21:38.281Z,3.30
2022-11-29T13:24:45.265Z,3.23
2022-11-29T13:27:58.505Z,3.20
2022-11-29T13:31:03.698Z,3.10
2022-11-29T13:34:14.451Z,3.00
2022-11-29T13:37:25.053Z,3.33
2022-11-29T13:40:38.792Z,2.80
2022-11-29T13:43:50.689Z,2.90
2022-11-29T13:47:03.791Z,3.20
2022-11-29T13:50:39.308Z,3.33
2022-11-29T13:53:48.787Z,2.70
2022-11-29T13:57:03.193Z,3.00
2022-11-29T14:00:07.884Z,2.97
2022-11-29T14:03:33.928Z,2.60
2022-11-29T14:06:40.143Z,2.57
2022-11-29T14:09:49.669Z,2.73
2022-11-29T14:12:57.696Z,2.67
2022-11-29T14:16:05.194Z,2.80
2022-11-29T14:19:23.264Z,2.40
2022-11-29T14:22:27.772Z,2.67
2022-11-29T14:28:54.453Z,2.43
2022-11-29T14:31:57.482Z,2.50
2022-11-29T14:35:06.111Z,2.37
2022-11-29T14:38:19.371Z,2.30
2022-11-29T14:41:29.927Z,2.47
2022-11-29T14:44:33.445Z,2.17
2022-11-29T14:47:39.059Z,2.20
2022-11-29T14:50:42.473Z,2.37
2022-11-29T14:53:49.391Z,2.30
2022-11-29T14:56:52.704Z,2.10
2022-11-29T14:59:55.744Z,2.00
2022-11-29T15:03:03.170Z,2.20
2022-11-29T15:06:13.543Z,2.07
2022-11-29T15:09:20.235Z,2.13
2022-11-29T15:12:27.373Z,1.83
2022-11-29T15:15:54.368Z,1.90
2022-11-29T15:19:09.307Z,2.50
2022-11-29T15:22:17.080Z,1.70
2022-11-29T15:25:23.146Z,1.97
2022-11-29T15:28:28.116Z,1.90
2022-11-29T15:31:31.403Z,2.00
2022-11-29T15:34:38.081Z,1.77
2022-11-29T15:37:44.630Z,1.80
2022-11-29T15:40:55.389Z,1.90
2022-11-29T15:44:00.124Z,1.80
2022-11-29T15:47:23.557Z,1.93
2022-11-29T15:50:28.404Z,1.73
2022-11-29T15:53:36.806Z,1.97
2022-11-29T15:56:45.695Z,1.70
2022-11-29T15:59:52.552Z,1.73
2022-11-29T16:03:01.138Z,1.80
2022-11-29T16:06:09.797Z,1.70
2022-11-29T16:09:17.023Z,1.50
2022-11-29T16:12:21.513Z,1.80
2022-11-29T16:15:29.206Z,1.80
2022-11-29T16:18:32.275Z,1.50
2022-11-29T16:21:35.331Z,1.30
2022-11-29T16:24:39.283Z,1.90
2022-11-29T16:27:44.236Z,1.73
2022-11-29T16:30:47.482Z,2.30
2022-11-29T16:33:54.109Z,4.70
2022-11-29T16:37:02.388Z,5.13
2022-11-29T16:40:06.100Z,4.90
2022-11-29T16:43:23.695Z,5.43
2022-11-29T16:46:44.404Z,5.13
2022-11-29T16:49:49.201Z,5.63
2022-11-29T16:52:56.515Z,5.30
2022-11-29T16:55:59.795Z,4.70
2022-11-29T16:59:17.242Z,4.80
2022-11-29T17:02:30.157Z,4.40
2022-11-29T17:05:33.322Z,5.17
2022-11-29T17:08:36.731Z,4.30
2022-11-29T17:11:40.090Z,4.63
2022-11-29T17:14:44.726Z,4.60
2022-11-29T17:17:47.656Z,4.87
2022-11-29T17:20:50.726Z,4.93
2022-11-29T17:23:55.109Z,4.00
2022-11-29T17:26:57.869Z,3.83
2022-11-29T17:30:02.243Z,3.70
2022-11-29T17:33:05.327Z,4.27
2022-11-29T17:36:10.244Z,4.03
2022-11-29T17:39:15.589Z,4.10
2022-11-29T17:42:18.895Z,3.90
2022-11-29T17:45:23.289Z,4.33
2022-11-29T17:48:32.003Z,4.17
2022-11-29T17:51:54.250Z,4.50
2022-11-29T17:54:57.448Z,4.10
2022-11-29T17:58:00.518Z,3.83
2022-11-29T18:01:09.471Z,4.00
2022-11-29T18:04:12.709Z,4.50
2022-11-29T18:07:17.397Z,4.10
2022-11-29T18:10:20.480Z,3.37
2022-11-29T18:13:29.051Z,3.87
2022-11-29T18:16:35.395Z,3.70
2022-11-29T18:19:38.509Z,3.40
2022-11-29T18:22:41.568Z,3.50
2022-11-29T18:25:44.670Z,3.60
2022-11-29T18:28:48.436Z,3.67
2022-11-29T18:31:52.939Z,3.43
2022-11-29T18:34:55.911Z,3.70
2022-11-29T18:38:14.844Z,3.50
2022-11-29T18:41:20.399Z,3.67
2022-11-29T18:44:29.196Z,3.33
2022-11-29T18:47:35.505Z,3.93
2022-11-29T18:50:38.516Z,4.20
2022-11-29T18:53:42.790Z,3.80
2022-11-29T18:56:46.835Z,4.20
2022-11-29T18:59:49.888Z,4.00
2022-11-29T19:02:54.757Z,4.97
2022-11-29T19:05:57.812Z,4.47
2022-11-29T19:09:01.429Z,4.63
2022-11-29T19:12:04.709Z,4.07
2022-11-29T19:15:08.828Z,4.43
2022-11-29T19:18:13.280Z,4.27
2022-11-29T19:21:18.226Z,4.10
2022-11-29T19:24:21.326Z,4.50
2022-11-29T19:27:26.115Z,3.70
2022-11-29T19:30:29.158Z,3.50
2022-11-29T19:33:34.457Z,3.90
2022-11-29T19:36:42.646Z,4.27
2022-11-29T19:39:46.473Z,4.13
2022-11-29T19:42:50.273Z,3.93
2022-11-29T19:45:53.276Z,4.00
2022-11-29T19:48:59.306Z,4.50
2022-11-29T19:52:02.363Z,4.37
2022-11-29T19:55:05.747Z,4.10
2022-11-29T19:58:08.705Z,3.73
2022-11-29T20:01:14.569Z,3.83
2022-11-29T20:04:19.058Z,4.10
2022-11-29T20:07:22.169Z,3.60
2022-11-29T20:10:25.471Z,3.70
2022-11-29T20:13:28.516Z,3.37
2022-11-29T20:16:32.557Z,3.90
2022-11-29T20:19:36.994Z,3.00
2022-11-29T20:22:40.301Z,3.70
2022-11-29T20:25:49.278Z,3.50
2022-11-29T20:28:52.704Z,3.90
2022-11-29T20:31:55.799Z,5.60
2022-11-29T20:35:02.599Z,5.00
2022-11-29T20:38:14.948Z,4.70
2022-11-29T20:41:23.844Z,4.60
2022-11-29T20:44:37.811Z,4.50
2022-11-29T20:47:50.500Z,4.50
2022-11-29T20:50:59.973Z,4.70
2022-11-29T20:54:03.019Z,4.30
2022-11-29T20:57:06.007Z,4.00
2022-11-29T21:00:11.685Z,4.70
2022-11-29T21:03:15.404Z,4.80
2022-11-29T21:06:19.891Z,4.53
2022-11-29T21:09:22.928Z,4.57
2022-11-29T21:12:26.459Z,3.93
2022-11-29T21:15:30.170Z,4.20
2022-11-29T21:18:34.168Z,3.80
2022-11-29T21:21:46.521Z,3.87
2022-11-29T21:24:57.825Z,4.13
2022-11-29T21:28:02.052Z,4.00
2022-11-29T21:31:05.899Z,4.13
2022-11-29T21:34:09.566Z,4.50
2022-11-29T21:37:15.283Z,11.93
2022-11-29T21:40:18.512Z,11.70
2022-11-29T21:43:32.692Z,10.27
2022-11-29T21:46:44.709Z,9.83
2022-11-29T21:49:48.040Z,9.80
2022-11-29T21:52:53.924Z,9.53
2022-11-29T21:55:58.299Z,9.20
2022-11-29T21:59:01.423Z,8.80
2022-11-29T22:02:05.063Z,9.00
2022-11-29T22:05:10.122Z,8.70
2022-11-29T22:08:14.694Z,8.60
2022-11-29T22:11:30.919Z,8.80
2022-11-29T22:14:34.163Z,8.30
2022-11-29T22:17:37.208Z,8.27
2022-11-29T22:20:40.231Z,8.07
2022-11-29T22:23:44.683Z,7.67
2022-11-29T22:26:48.431Z,7.57
2022-11-29T22:29:51.471Z,7.30
2022-11-29T22:32:56.703Z,7.40
2022-11-29T22:36:04.390Z,7.20
2022-11-29T22:39:09.648Z,7.87
2022-11-29T22:42:12.775Z,6.40
2022-11-29T22:45:15.842Z,6.30
2022-11-29T22:48:19.081Z,5.90
2022-11-29T22:51:24.263Z,6.30
2022-11-29T22:54:29.502Z,6.10
2022-11-29T22:57:32.543Z,6.03
2022-11-29T23:00:42.242Z,6.23
2022-11-29T23:03:48.196Z,5.53
2022-11-29T23:06:51.234Z,5.50
2022-11-29T23:09:56.238Z,5.27
2022-11-29T23:12:59.313Z,5.43
2022-11-29T23:16:02.972Z,5.10
2022-11-29T23:19:05.997Z,4.73
2022-11-29T23:22:09.065Z,5.13
2022-11-29T23:25:13.538Z,5.23
2022-11-29T23:28:16.825Z,4.90
2022-11-29T23:31:20.341Z,4.50
2022-11-29T23:34:23.466Z,4.80
2022-11-29T23:37:26.724Z,4.63
2022-11-29T23:40:31.167Z,4.43
2022-11-29T23:43:35.938Z,5.60
2022-11-29T23:46:39.065Z,4.57
2022-11-29T23:49:42.112Z,4.53
2022-11-29T23:52:45.192Z,4.63
2022-11-29T23:55:58.459Z,4.10
2022-11-29T23:59:01.518Z,4.17
